sensor_id;sensor_type;location;lat;lon;timestamp;temperature;humidity
9662;DHT22;24982;52.344;12.990;2022-08-21T00:01:48;20.00;99.90
9662;DHT22;24982;52.344;12.990;2022-08-21T00:04:52;20.40;99.90
9662;DHT22;24982;52.344;12.990;2022-08-21T00:07:54;20.00;99.90
9662;DHT22;24982;52.344;12.990;2022-08-21T00:10:57;19.90;99.90
9662;DHT22;24982;52.344;12.990;2022-08-21T00:13:59;19.90;99.90
9662;DHT22;24982;52.344;12.990;2022-08-21T00:17:02;19.90;99.90
9662;DHT22;24982;52.344;12.990;2022-08-21T00:20:08;19.80;99.90
9662;DHT22;24982;52.344;12.990;2022-08-21T00:23:12;19.80;99.90
9662;DHT22;24982;52.344;12.990;2022-08-21T00:26:14;19.80;99.90
9662;DHT22;24982;52.344;12.990;2022-08-21T00:29:16;19.80;99.90
9662;DHT22;24982;52.344;12.990;2022-08-21T00:32:23;19.70;99.90
9662;DHT22;24982;52.344;12.990;2022-08-21T00:35:31;19.70;99.90
9662;DHT22;24982;52.344;12.990;2022-08-21T00:38:33;19.70;99.90
9662;DHT22;24982;52.344;12.990;2022-08-21T00:41:37;19.70;99.90
9662;DHT22;24982;52.344;12.990;2022-08-21T00:44:41;19.70;99.90
9662;DHT22;24982;52.344;12.990;2022-08-21T00:47:43;19.60;99.90
9662;DHT22;24982;52.344;12.990;2022-08-21T00:50:52;19.60;99.90
9662;DHT22;24982;52.344;12.990;2022-08-21T00:53:57;19.50;99.90
9662;DHT22;24982;52.344;12.990;2022-08-21T00:57:07;19.50;99.90
9662;DHT22;24982;52.344;12.990;2022-08-21T01:00:14;19.50;99.90
9662;DHT22;24982;52.344;12.990;2022-08-21T01:03:22;19.60;99.90
9662;DHT22;24982;52.344;12.990;2022-08-21T01:06:26;19.60;99.90
9662;DHT22;24982;52.344;12.990;2022-08-21T01:09:28;19.50;99.90
9662;DHT22;24982;52.344;12.990;2022-08-21T01:12:30;19.50;99.90
9662;DHT22;24982;52.344;12.990;2022-08-21T01:15:35;19.50;99.90
9662;DHT22;24982;52.344;12.990;2022-08-21T01:18:38;19.40;99.90
9662;DHT22;24982;52.344;12.990;2022-08-21T01:21:41;19.40;99.90
9662;DHT22;24982;52.344;12.990;2022-08-21T01:24:43;19.40;99.90
9662;DHT22;24982;52.344;12.990;2022-08-21T01:27:45;19.30;99.90
9662;DHT22;24982;52.344;12.990;2022-08-21T01:30:48;19.20;99.90
9662;DHT22;24982;52.344;12.990;2022-08-21T01:33:53;19.20;99.90
9662;DHT22;24982;52.344;12.990;2022-08-21T01:36:57;19.20;99.90
9662;DHT22;24982;52.344;12.990;2022-08-21T01:39:59;19.20;99.90
9662;DHT22;24982;52.344;12.990;2022-08-21T01:43:02;19.20;99.90
9662;DHT22;24982;52.344;12.990;2022-08-21T01:46:04;19.20;99.90
9662;DHT22;24982;52.344;12.990;2022-08-21T01:49:06;19.20;99.90
9662;DHT22;24982;52.344;12.990;2022-08-21T01:52:11;19.20;99.90
9662;DHT22;24982;52.344;12.990;2022-08-21T01:55:14;19.20;99.90
9662;DHT22;24982;52.344;12.990;2022-08-21T01:58:16;19.20;99.90
9662;DHT22;24982;52.344;12.990;2022-08-21T02:01:18;19.10;99.90
9662;DHT22;24982;52.344;12.990;2022-08-21T02:04:21;19.10;99.90
9662;DHT22;24982;52.344;12.990;2022-08-21T02:07:24;19.00;99.90
9662;DHT22;24982;52.344;12.990;2022-08-21T02:10:29;19.00;99.90
9662;DHT22;24982;52.344;12.990;2022-08-21T02:13:31;18.90;99.90
9662;DHT22;24982;52.344;12.990;2022-08-21T02:16:33;18.90;99.90
9662;DHT22;24982;52.344;12.990;2022-08-21T02:19:37;18.80;99.90
9662;DHT22;24982;52.344;12.990;2022-08-21T02:22:40;18.80;99.90
9662;DHT22;24982;52.344;12.990;2022-08-21T02:25:42;18.70;99.90
9662;DHT22;24982;52.344;12.990;2022-08-21T02:28:46;18.70;99.90
9662;DHT22;24982;52.344;12.990;2022-08-21T02:31:48;18.60;99.90
9662;DHT22;24982;52.344;12.990;2022-08-21T02:34:50;18.60;99.90
9662;DHT22;24982;52.344;12.990;2022-08-21T02:37:56;18.60;99.90
9662;DHT22;24982;52.344;12.990;2022-08-21T02:40:59;18.50;99.90
9662;DHT22;24982;52.344;12.990;2022-08-21T02:44:01;18.50;99.90
9662;DHT22;24982;52.344;12.990;2022-08-21T02:47:03;18.50;99.90
9662;DHT22;24982;52.344;12.990;2022-08-21T02:50:07;18.60;99.90
9662;DHT22;24982;52.344;12.990;2022-08-21T02:53:12;18.30;99.90
9662;DHT22;24982;52.344;12.990;2022-08-21T02:56:19;18.60;99.90
9662;DHT22;24982;52.344;12.990;2022-08-21T02:59:22;18.70;99.90
9662;DHT22;24982;52.344;12.990;2022-08-21T03:02:24;18.70;99.90
9662;DHT22;24982;52.344;12.990;2022-08-21T03:05:29;18.70;99.90
9662;DHT22;24982;52.344;12.990;2022-08-21T03:08:34;18.60;99.90
9662;DHT22;24982;52.344;12.990;2022-08-21T03:11:36;18.60;99.90
9662;DHT22;24982;52.344;12.990;2022-08-21T03:14:38;18.60;99.90
9662;DHT22;24982;52.344;12.990;2022-08-21T03:17:40;18.60;99.90
9662;DHT22;24982;52.344;12.990;2022-08-21T03:20:42;18.70;99.90
9662;DHT22;24982;52.344;12.990;2022-08-21T03:23:47;18.70;99.90
9662;DHT22;24982;52.344;12.990;2022-08-21T03:26:49;18.70;99.90
9662;DHT22;24982;52.344;12.990;2022-08-21T03:29:51;18.60;99.90
9662;DHT22;24982;52.344;12.990;2022-08-21T03:32:53;18.60;99.90
9662;DHT22;24982;52.344;12.990;2022-08-21T03:35:59;18.60;99.90
9662;DHT22;24982;52.344;12.990;2022-08-21T03:39:03;18.60;99.90
9662;DHT22;24982;52.344;12.990;2022-08-21T03:42:06;18.50;99.90
9662;DHT22;24982;52.344;12.990;2022-08-21T03:45:09;18.50;99.90
9662;DHT22;24982;52.344;12.990;2022-08-21T03:48:11;18.30;99.90
9662;DHT22;24982;52.344;12.990;2022-08-21T03:51:13;18.30;99.90
9662;DHT22;24982;52.344;12.990;2022-08-21T03:54:17;18.30;99.90
9662;DHT22;24982;52.344;12.990;2022-08-21T03:57:19;18.30;99.90
9662;DHT22;24982;52.344;12.990;2022-08-21T04:00:23;18.20;99.90
9662;DHT22;24982;52.344;12.990;2022-08-21T04:03:26;18.20;99.90
9662;DHT22;24982;52.344;12.990;2022-08-21T04:06:29;18.10;99.90
9662;DHT22;24982;52.344;12.990;2022-08-21T04:09:32;18.10;99.90
9662;DHT22;24982;52.344;12.990;2022-08-21T04:12:34;18.00;99.90
9662;DHT22;24982;52.344;12.990;2022-08-21T04:15:36;18.00;99.90
9662;DHT22;24982;52.344;12.990;2022-08-21T04:18:39;17.90;99.90
9662;DHT22;24982;52.344;12.990;2022-08-21T04:21:41;17.90;99.90
9662;DHT22;24982;52.344;12.990;2022-08-21T04:24:45;17.90;99.90
9662;DHT22;24982;52.344;12.990;2022-08-21T04:27:47;17.90;99.90
9662;DHT22;24982;52.344;12.990;2022-08-21T04:30:50;17.90;99.90
9662;DHT22;24982;52.344;12.990;2022-08-21T04:33:52;18.00;99.90
9662;DHT22;24982;52.344;12.990;2022-08-21T04:36:54;18.00;99.90
9662;DHT22;24982;52.344;12.990;2022-08-21T04:39:58;18.00;99.90
9662;DHT22;24982;52.344;12.990;2022-08-21T04:43:03;18.00;99.90
9662;DHT22;24982;52.344;12.990;2022-08-21T04:46:05;18.00;99.90
9662;DHT22;24982;52.344;12.990;2022-08-21T04:49:07;18.10;99.90
9662;DHT22;24982;52.344;12.990;2022-08-21T04:52:10;18.10;99.90
9662;DHT22;24982;52.344;12.990;2022-08-21T04:55:15;18.10;99.90
9662;DHT22;24982;52.344;12.990;2022-08-21T04:58:19;18.20;99.90
9662;DHT22;24982;52.344;12.990;2022-08-21T05:01:24;18.30;99.90
9662;DHT22;24982;52.344;12.990;2022-08-21T05:04:29;18.20;99.90
9662;DHT22;24982;52.344;12.990;2022-08-21T05:07:32;18.20;99.90
9662;DHT22;24982;52.344;12.990;2022-08-21T05:10:36;18.30;99.90
9662;DHT22;24982;52.344;12.990;2022-08-21T05:13:39;18.30;99.90
9662;DHT22;24982;52.344;12.990;2022-08-21T05:16:42;18.80;99.90
9662;DHT22;24982;52.344;12.990;2022-08-21T05:19:44;18.40;99.90
9662;DHT22;24982;52.344;12.990;2022-08-21T05:22:46;18.40;99.90
9662;DHT22;24982;52.344;12.990;2022-08-21T05:25:51;18.50;99.90
9662;DHT22;24982;52.344;12.990;2022-08-21T05:28:53;18.50;99.90
9662;DHT22;24982;52.344;12.990;2022-08-21T05:31:55;18.60;99.90
9662;DHT22;24982;52.344;12.990;2022-08-21T05:34:57;18.60;99.90
9662;DHT22;24982;52.344;12.990;2022-08-21T05:38:00;18.60;99.90
9662;DHT22;24982;52.344;12.990;2022-08-21T05:41:04;18.60;99.90
9662;DHT22;24982;52.344;12.990;2022-08-21T05:44:06;18.60;99.90
9662;DHT22;24982;52.344;12.990;2022-08-21T05:47:09;18.70;99.90
9662;DHT22;24982;52.344;12.990;2022-08-21T05:50:12;18.50;99.90
9662;DHT22;24982;52.344;12.990;2022-08-21T05:53:15;18.80;99.90
9662;DHT22;24982;52.344;12.990;2022-08-21T05:56:19;18.80;99.90
9662;DHT22;24982;52.344;12.990;2022-08-21T05:59:22;18.80;99.90
9662;DHT22;24982;52.344;12.990;2022-08-21T06:02:24;18.80;99.90
9662;DHT22;24982;52.344;12.990;2022-08-21T06:05:26;18.80;99.90
9662;DHT22;24982;52.344;12.990;2022-08-21T06:08:29;18.90;99.90
9662;DHT22;24982;52.344;12.990;2022-08-21T06:11:33;18.90;99.90
9662;DHT22;24982;52.344;12.990;2022-08-21T06:14:37;18.80;99.90
9662;DHT22;24982;52.344;12.990;2022-08-21T06:17:39;18.90;99.90
9662;DHT22;24982;52.344;12.990;2022-08-21T06:20:41;19.00;99.90
9662;DHT22;24982;52.344;12.990;2022-08-21T06:23:44;19.10;99.90
9662;DHT22;24982;52.344;12.990;2022-08-21T06:26:47;19.10;99.90
9662;DHT22;24982;52.344;12.990;2022-08-21T06:29:49;19.10;99.90
9662;DHT22;24982;52.344;12.990;2022-08-21T06:32:51;19.20;99.90
9662;DHT22;24982;52.344;12.990;2022-08-21T06:35:53;19.20;99.90
9662;DHT22;24982;52.344;12.990;2022-08-21T06:38:56;19.30;99.90
9662;DHT22;24982;52.344;12.990;2022-08-21T06:41:59;19.30;99.90
9662;DHT22;24982;52.344;12.990;2022-08-21T06:45:03;19.30;99.90
9662;DHT22;24982;52.344;12.990;2022-08-21T06:48:06;19.40;99.90
9662;DHT22;24982;52.344;12.990;2022-08-21T06:51:08;19.40;99.90
9662;DHT22;24982;52.344;12.990;2022-08-21T06:54:10;19.50;99.90
9662;DHT22;24982;52.344;12.990;2022-08-21T06:57:14;19.50;99.90
9662;DHT22;24982;52.344;12.990;2022-08-21T07:00:16;19.60;99.90
9662;DHT22;24982;52.344;12.990;2022-08-21T07:03:22;19.60;99.90
9662;DHT22;24982;52.344;12.990;2022-08-21T07:06:25;19.70;99.90
9662;DHT22;24982;52.344;12.990;2022-08-21T07:09:27;19.70;99.90
9662;DHT22;24982;52.344;12.990;2022-08-21T07:12:30;19.80;99.90
9662;DHT22;24982;52.344;12.990;2022-08-21T07:15:32;19.90;99.90
9662;DHT22;24982;52.344;12.990;2022-08-21T07:18:35;20.00;99.90
9662;DHT22;24982;52.344;12.990;2022-08-21T07:21:37;20.10;99.90
9662;DHT22;24982;52.344;12.990;2022-08-21T07:24:39;20.10;99.90
9662;DHT22;24982;52.344;12.990;2022-08-21T07:27:42;20.10;99.90
9662;DHT22;24982;52.344;12.990;2022-08-21T07:30:45;20.20;99.90
9662;DHT22;24982;52.344;12.990;2022-08-21T07:33:47;20.30;99.90
9662;DHT22;24982;52.344;12.990;2022-08-21T07:36:49;20.30;99.90
9662;DHT22;24982;52.344;12.990;2022-08-21T07:39:52;20.40;99.90
9662;DHT22;24982;52.344;12.990;2022-08-21T07:42:56;20.50;99.90
9662;DHT22;24982;52.344;12.990;2022-08-21T07:49:00;20.60;99.90
9662;DHT22;24982;52.344;12.990;2022-08-21T07:52:04;20.70;99.90
9662;DHT22;24982;52.344;12.990;2022-08-21T07:55:07;20.80;99.90
9662;DHT22;24982;52.344;12.990;2022-08-21T07:58:10;20.90;99.90
9662;DHT22;24982;52.344;12.990;2022-08-21T08:01:13;21.00;99.90
9662;DHT22;24982;52.344;12.990;2022-08-21T08:04:15;21.20;99.90
9662;DHT22;24982;52.344;12.990;2022-08-21T08:07:18;21.20;99.90
9662;DHT22;24982;52.344;12.990;2022-08-21T08:10:21;21.20;99.90
9662;DHT22;24982;52.344;12.990;2022-08-21T08:13:25;21.30;99.90
9662;DHT22;24982;52.344;12.990;2022-08-21T08:16:27;21.30;99.90
9662;DHT22;24982;52.344;12.990;2022-08-21T08:19:29;21.40;99.90
9662;DHT22;24982;52.344;12.990;2022-08-21T08:22:34;21.50;99.90
9662;DHT22;24982;52.344;12.990;2022-08-21T08:25:36;21.60;99.90
9662;DHT22;24982;52.344;12.990;2022-08-21T08:28:40;21.70;99.90
9662;DHT22;24982;52.344;12.990;2022-08-21T08:31:42;21.70;99.90
9662;DHT22;24982;52.344;12.990;2022-08-21T08:34:44;21.80;99.90
9662;DHT22;24982;52.344;12.990;2022-08-21T08:37:47;22.00;99.90
9662;DHT22;24982;52.344;12.990;2022-08-21T08:40:54;22.10;99.90
9662;DHT22;24982;52.344;12.990;2022-08-21T08:44:04;22.10;99.90
9662;DHT22;24982;52.344;12.990;2022-08-21T08:47:09;22.20;99.90
9662;DHT22;24982;52.344;12.990;2022-08-21T08:50:16;22.20;99.90
9662;DHT22;24982;52.344;12.990;2022-08-21T08:53:22;22.30;99.90
9662;DHT22;24982;52.344;12.990;2022-08-21T08:56:29;22.40;99.90
9662;DHT22;24982;52.344;12.990;2022-08-21T08:59:39;22.40;99.90
9662;DHT22;24982;52.344;12.990;2022-08-21T09:02:43;22.50;99.90
9662;DHT22;24982;52.344;12.990;2022-08-21T09:05:48;22.50;99.90
9662;DHT22;24982;52.344;12.990;2022-08-21T09:08:56;22.50;99.90
9662;DHT22;24982;52.344;12.990;2022-08-21T09:12:06;22.50;99.90
9662;DHT22;24982;52.344;12.990;2022-08-21T09:15:19;22.50;99.90
9662;DHT22;24982;52.344;12.990;2022-08-21T09:18:31;22.60;99.90
9662;DHT22;24982;52.344;12.990;2022-08-21T09:21:43;22.70;99.90
9662;DHT22;24982;52.344;12.990;2022-08-21T09:24:55;22.70;99.90
9662;DHT22;24982;52.344;12.990;2022-08-21T09:28:02;22.80;99.90
9662;DHT22;24982;52.344;12.990;2022-08-21T09:31:08;22.80;99.90
9662;DHT22;24982;52.344;12.990;2022-08-21T09:34:25;23.00;99.90
9662;DHT22;24982;52.344;12.990;2022-08-21T09:37:28;23.00;99.90
9662;DHT22;24982;52.344;12.990;2022-08-21T09:40:35;23.10;99.90
9662;DHT22;24982;52.344;12.990;2022-08-21T09:43:38;23.20;99.90
9662;DHT22;24982;52.344;12.990;2022-08-21T09:46:50;23.40;99.90
9662;DHT22;24982;52.344;12.990;2022-08-21T09:49:53;23.50;99.90
9662;DHT22;24982;52.344;12.990;2022-08-21T09:52:56;23.50;99.90
9662;DHT22;24982;52.344;12.990;2022-08-21T09:56:02;23.60;99.90
9662;DHT22;24982;52.344;12.990;2022-08-21T09:59:26;23.80;99.90
9662;DHT22;24982;52.344;12.990;2022-08-21T10:02:34;23.90;99.90
9662;DHT22;24982;52.344;12.990;2022-08-21T10:05:37;24.00;99.90
9662;DHT22;24982;52.344;12.990;2022-08-21T10:08:40;24.00;99.90
9662;DHT22;24982;52.344;12.990;2022-08-21T10:11:52;24.20;99.90
9662;DHT22;24982;52.344;12.990;2022-08-21T10:15:09;24.40;99.90
9662;DHT22;24982;52.344;12.990;2022-08-21T10:18:22;24.70;99.90
9662;DHT22;24982;52.344;12.990;2022-08-21T10:21:30;24.80;99.90
9662;DHT22;24982;52.344;12.990;2022-08-21T10:24:40;25.00;99.90
9662;DHT22;24982;52.344;12.990;2022-08-21T10:27:51;25.20;99.90
9662;DHT22;24982;52.344;12.990;2022-08-21T10:31:02;25.40;99.90
9662;DHT22;24982;52.344;12.990;2022-08-21T10:34:16;25.50;99.90
9662;DHT22;24982;52.344;12.990;2022-08-21T10:37:27;25.50;99.90
9662;DHT22;24982;52.344;12.990;2022-08-21T10:40:39;25.70;99.90
9662;DHT22;24982;52.344;12.990;2022-08-21T10:43:48;25.90;99.90
9662;DHT22;24982;52.344;12.990;2022-08-21T10:46:56;26.20;99.90
9662;DHT22;24982;52.344;12.990;2022-08-21T10:50:09;26.60;99.90
9662;DHT22;24982;52.344;12.990;2022-08-21T10:53:22;26.90;99.90
9662;DHT22;24982;52.344;12.990;2022-08-21T10:56:30;27.30;99.90
9662;DHT22;24982;52.344;12.990;2022-08-21T10:59:38;27.80;98.70
9662;DHT22;24982;52.344;12.990;2022-08-21T11:02:46;28.30;99.60
9662;DHT22;24982;52.344;12.990;2022-08-21T11:05:54;28.80;97.60
9662;DHT22;24982;52.344;12.990;2022-08-21T11:08:59;29.30;97.70
9662;DHT22;24982;52.344;12.990;2022-08-21T11:12:12;30.00;94.90
9662;DHT22;24982;52.344;12.990;2022-08-21T11:15:26;30.60;92.20
9662;DHT22;24982;52.344;12.990;2022-08-21T11:18:32;31.20;90.40
9662;DHT22;24982;52.344;12.990;2022-08-21T11:21:39;31.80;88.50
9662;DHT22;24982;52.344;12.990;2022-08-21T11:24:46;32.20;85.40
9662;DHT22;24982;52.344;12.990;2022-08-21T11:27:54;32.60;84.80
9662;DHT22;24982;52.344;12.990;2022-08-21T11:31:02;32.90;80.40
9662;DHT22;24982;52.344;12.990;2022-08-21T11:34:19;33.20;81.00
9662;DHT22;24982;52.344;12.990;2022-08-21T11:37:41;33.30;78.60
9662;DHT22;24982;52.344;12.990;2022-08-21T11:41:03;33.60;72.70
9662;DHT22;24982;52.344;12.990;2022-08-21T11:44:13;33.70;75.70
9662;DHT22;24982;52.344;12.990;2022-08-21T11:47:24;33.90;69.20
9662;DHT22;24982;52.344;12.990;2022-08-21T11:50:31;34.00;69.70
9662;DHT22;24982;52.344;12.990;2022-08-21T11:53:38;34.10;67.70
9662;DHT22;24982;52.344;12.990;2022-08-21T11:56:43;34.60;64.60
9662;DHT22;24982;52.344;12.990;2022-08-21T11:59:55;34.50;63.60
9662;DHT22;24982;52.344;12.990;2022-08-21T12:03:07;34.60;63.20
9662;DHT22;24982;52.344;12.990;2022-08-21T12:06:12;34.60;62.90
9662;DHT22;24982;52.344;12.990;2022-08-21T12:09:31;34.50;60.60
9662;DHT22;24982;52.344;12.990;2022-08-21T12:12:36;34.50;61.40
9662;DHT22;24982;52.344;12.990;2022-08-21T12:15:38;34.40;62.70
9662;DHT22;24982;52.344;12.990;2022-08-21T12:18:41;34.10;60.80
9662;DHT22;24982;52.344;12.990;2022-08-21T12:21:49;34.20;62.10
9662;DHT22;24982;52.344;12.990;2022-08-21T12:25:05;33.90;61.40
9662;DHT22;24982;52.344;12.990;2022-08-21T12:28:08;33.80;63.20
9662;DHT22;24982;52.344;12.990;2022-08-21T12:31:19;33.40;62.00
9662;DHT22;24982;52.344;12.990;2022-08-21T12:34:24;33.20;62.50
9662;DHT22;24982;52.344;12.990;2022-08-21T12:37:37;32.70;64.30
9662;DHT22;24982;52.344;12.990;2022-08-21T12:40:45;32.50;64.50
9662;DHT22;24982;52.344;12.990;2022-08-21T12:43:53;32.00;66.40
9662;DHT22;24982;52.344;12.990;2022-08-21T12:47:02;31.60;66.00
9662;DHT22;24982;52.344;12.990;2022-08-21T12:50:08;31.10;67.30
9662;DHT22;24982;52.344;12.990;2022-08-21T12:53:19;30.80;68.80
9662;DHT22;24982;52.344;12.990;2022-08-21T12:56:28;30.40;70.30
9662;DHT22;24982;52.344;12.990;2022-08-21T12:59:31;29.90;71.20
9662;DHT22;24982;52.344;12.990;2022-08-21T13:02:37;29.10;72.50
9662;DHT22;24982;52.344;12.990;2022-08-21T13:05:40;28.50;73.10
9662;DHT22;24982;52.344;12.990;2022-08-21T13:08:43;27.90;71.30
9662;DHT22;24982;52.344;12.990;2022-08-21T13:11:48;27.40;75.40
9662;DHT22;24982;52.344;12.990;2022-08-21T13:14:52;27.00;78.00
9662;DHT22;24982;52.344;12.990;2022-08-21T13:17:57;26.80;79.40
9662;DHT22;24982;52.344;12.990;2022-08-21T13:21:04;26.50;79.80
9662;DHT22;24982;52.344;12.990;2022-08-21T13:24:15;26.30;79.50
9662;DHT22;24982;52.344;12.990;2022-08-21T13:27:23;26.10;82.50
9662;DHT22;24982;52.344;12.990;2022-08-21T13:30:26;25.90;81.60
9662;DHT22;24982;52.344;12.990;2022-08-21T13:33:30;25.90;82.70
9662;DHT22;24982;52.344;12.990;2022-08-21T13:36:35;25.70;82.90
9662;DHT22;24982;52.344;12.990;2022-08-21T13:39:38;25.60;83.90
9662;DHT22;24982;52.344;12.990;2022-08-21T13:42:43;25.50;83.90
9662;DHT22;24982;52.344;12.990;2022-08-21T13:45:49;25.70;85.20
9662;DHT22;24982;52.344;12.990;2022-08-21T13:48:51;25.70;86.90
9662;DHT22;24982;52.344;12.990;2022-08-21T13:51:54;25.60;83.90
9662;DHT22;24982;52.344;12.990;2022-08-21T13:54:58;25.60;88.20
9662;DHT22;24982;52.344;12.990;2022-08-21T13:58:04;25.50;87.10
9662;DHT22;24982;52.344;12.990;2022-08-21T14:01:18;25.40;89.30
9662;DHT22;24982;52.344;12.990;2022-08-21T14:04:24;25.40;87.00
9662;DHT22;24982;52.344;12.990;2022-08-21T14:07:29;25.40;90.90
9662;DHT22;24982;52.344;12.990;2022-08-21T14:10:37;25.40;87.50
9662;DHT22;24982;52.344;12.990;2022-08-21T14:13:45;25.30;89.80
9662;DHT22;24982;52.344;12.990;2022-08-21T14:16:54;25.40;90.50
9662;DHT22;24982;52.344;12.990;2022-08-21T14:19:56;25.30;90.90
9662;DHT22;24982;52.344;12.990;2022-08-21T14:22:58;25.20;92.70
9662;DHT22;24982;52.344;12.990;2022-08-21T14:26:03;25.10;92.20
9662;DHT22;24982;52.344;12.990;2022-08-21T14:29:09;25.10;90.60
9662;DHT22;24982;52.344;12.990;2022-08-21T14:32:14;25.10;90.40
9662;DHT22;24982;52.344;12.990;2022-08-21T14:35:17;25.10;89.10
9662;DHT22;24982;52.344;12.990;2022-08-21T14:38:22;25.00;90.90
9662;DHT22;24982;52.344;12.990;2022-08-21T14:41:26;25.00;91.00
9662;DHT22;24982;52.344;12.990;2022-08-21T14:44:31;24.90;91.40
9662;DHT22;24982;52.344;12.990;2022-08-21T14:47:33;24.90;91.40
9662;DHT22;24982;52.344;12.990;2022-08-21T14:50:35;24.90;91.40
9662;DHT22;24982;52.344;12.990;2022-08-21T14:53:37;24.80;92.50
9662;DHT22;24982;52.344;12.990;2022-08-21T14:56:39;24.80;91.70
9662;DHT22;24982;52.344;12.990;2022-08-21T14:59:43;24.70;92.20
9662;DHT22;24982;52.344;12.990;2022-08-21T15:02:45;24.80;91.80
9662;DHT22;24982;52.344;12.990;2022-08-21T15:05:47;24.80;91.00
9662;DHT22;24982;52.344;12.990;2022-08-21T15:08:50;24.90;91.00
9662;DHT22;24982;52.344;12.990;2022-08-21T15:11:55;25.00;91.80
9662;DHT22;24982;52.344;12.990;2022-08-21T15:14:58;25.00;90.30
9662;DHT22;24982;52.344;12.990;2022-08-21T15:18:00;24.90;91.20
9662;DHT22;24982;52.344;12.990;2022-08-21T15:21:02;24.80;92.20
9662;DHT22;24982;52.344;12.990;2022-08-21T15:24:05;24.70;93.20
9662;DHT22;24982;52.344;12.990;2022-08-21T15:27:08;24.70;93.40
9662;DHT22;24982;52.344;12.990;2022-08-21T15:30:12;24.70;93.60
9662;DHT22;24982;52.344;12.990;2022-08-21T15:33:14;24.60;91.60
9662;DHT22;24982;52.344;12.990;2022-08-21T15:36:16;24.70;93.10
9662;DHT22;24982;52.344;12.990;2022-08-21T15:39:18;24.80;92.40
9662;DHT22;24982;52.344;12.990;2022-08-21T15:42:21;24.80;91.60
9662;DHT22;24982;52.344;12.990;2022-08-21T15:45:24;24.80;91.50
9662;DHT22;24982;52.344;12.990;2022-08-21T15:48:27;24.80;92.20
9662;DHT22;24982;52.344;12.990;2022-08-21T15:51:29;24.70;92.90
9662;DHT22;24982;52.344;12.990;2022-08-21T15:54:31;24.70;92.40
9662;DHT22;24982;52.344;12.990;2022-08-21T15:57:34;24.60;92.10
9662;DHT22;24982;52.344;12.990;2022-08-21T16:00:38;24.60;92.50
9662;DHT22;24982;52.344;12.990;2022-08-21T16:03:40;24.60;93.20
9662;DHT22;24982;52.344;12.990;2022-08-21T16:06:44;24.50;93.20
9662;DHT22;24982;52.344;12.990;2022-08-21T16:09:46;24.40;93.40
9662;DHT22;24982;52.344;12.990;2022-08-21T16:12:51;24.40;94.30
9662;DHT22;24982;52.344;12.990;2022-08-21T16:15:57;24.40;94.20
9662;DHT22;24982;52.344;12.990;2022-08-21T16:18:59;24.40;94.20
9662;DHT22;24982;52.344;12.990;2022-08-21T16:22:01;24.40;93.80
9662;DHT22;24982;52.344;12.990;2022-08-21T16:25:04;24.40;92.40
9662;DHT22;24982;52.344;12.990;2022-08-21T16:28:09;24.40;93.40
9662;DHT22;24982;52.344;12.990;2022-08-21T16:31:13;24.40;93.10
9662;DHT22;24982;52.344;12.990;2022-08-21T16:34:17;24.30;94.20
9662;DHT22;24982;52.344;12.990;2022-08-21T16:37:20;24.30;95.00
9662;DHT22;24982;52.344;12.990;2022-08-21T16:40:23;24.20;93.90
9662;DHT22;24982;52.344;12.990;2022-08-21T16:43:28;24.20;95.10
9662;DHT22;24982;52.344;12.990;2022-08-21T16:46:34;24.20;94.70
9662;DHT22;24982;52.344;12.990;2022-08-21T16:49:37;24.20;94.70
9662;DHT22;24982;52.344;12.990;2022-08-21T16:52:39;24.10;95.20
9662;DHT22;24982;52.344;12.990;2022-08-21T16:55:41;24.10;94.20
9662;DHT22;24982;52.344;12.990;2022-08-21T16:58:46;24.10;96.00
9662;DHT22;24982;52.344;12.990;2022-08-21T17:01:50;24.00;95.20
9662;DHT22;24982;52.344;12.990;2022-08-21T17:04:53;24.00;96.50
9662;DHT22;24982;52.344;12.990;2022-08-21T17:07:56;23.90;97.90
9662;DHT22;24982;52.344;12.990;2022-08-21T17:10:59;23.90;97.10
9662;DHT22;24982;52.344;12.990;2022-08-21T17:14:04;23.80;96.90
9662;DHT22;24982;52.344;12.990;2022-08-21T17:17:09;23.70;96.80
9662;DHT22;24982;52.344;12.990;2022-08-21T17:20:12;23.70;96.10
9662;DHT22;24982;52.344;12.990;2022-08-21T17:23:15;23.60;96.60
9662;DHT22;24982;52.344;12.990;2022-08-21T17:26:18;23.50;97.70
9662;DHT22;24982;52.344;12.990;2022-08-21T17:29:24;23.40;97.90
9662;DHT22;24982;52.344;12.990;2022-08-21T17:32:30;23.30;98.00
9662;DHT22;24982;52.344;12.990;2022-08-21T17:35:32;22.30;97.40
9662;DHT22;24982;52.344;12.990;2022-08-21T17:38:35;23.10;97.80
9662;DHT22;24982;52.344;12.990;2022-08-21T17:41:41;23.00;97.90
9662;DHT22;24982;52.344;12.990;2022-08-21T17:44:45;22.90;99.80
9662;DHT22;24982;52.344;12.990;2022-08-21T17:47:51;22.80;99.90
9662;DHT22;24982;52.344;12.990;2022-08-21T17:50:55;22.70;99.30
9662;DHT22;24982;52.344;12.990;2022-08-21T17:53:59;22.60;98.20
9662;DHT22;24982;52.344;12.990;2022-08-21T17:57:02;22.40;98.40
9662;DHT22;24982;52.344;12.990;2022-08-21T18:00:08;22.30;98.90
9662;DHT22;24982;52.344;12.990;2022-08-21T18:03:18;22.10;99.60
9662;DHT22;24982;52.344;12.990;2022-08-21T18:06:35;21.90;99.90
9662;DHT22;24982;52.344;12.990;2022-08-21T18:09:41;21.70;99.90
9662;DHT22;24982;52.344;12.990;2022-08-21T18:12:56;21.50;99.90
9662;DHT22;24982;52.344;12.990;2022-08-21T18:16:15;21.30;99.90
9662;DHT22;24982;52.344;12.990;2022-08-21T18:19:29;21.20;99.90
9662;DHT22;24982;52.344;12.990;2022-08-21T18:22:37;21.00;99.90
9662;DHT22;24982;52.344;12.990;2022-08-21T18:25:47;20.80;99.90
9662;DHT22;24982;52.344;12.990;2022-08-21T18:28:58;20.70;99.90
9662;DHT22;24982;52.344;12.990;2022-08-21T18:32:06;20.50;99.90
9662;DHT22;24982;52.344;12.990;2022-08-21T18:35:21;20.40;99.90
9662;DHT22;24982;52.344;12.990;2022-08-21T18:38:26;20.30;99.90
9662;DHT22;24982;52.344;12.990;2022-08-21T18:46:08;20.10;99.90
9662;DHT22;24982;52.344;12.990;2022-08-21T18:49:11;20.00;99.90
9662;DHT22;24982;52.344;12.990;2022-08-21T18:52:14;19.90;99.90
9662;DHT22;24982;52.344;12.990;2022-08-21T18:55:18;19.80;99.90
9662;DHT22;24982;52.344;12.990;2022-08-21T18:58:20;19.80;99.90
9662;DHT22;24982;52.344;12.990;2022-08-21T19:01:22;19.80;99.90
9662;DHT22;24982;52.344;12.990;2022-08-21T19:04:24;19.60;99.90
9662;DHT22;24982;52.344;12.990;2022-08-21T19:07:28;19.60;99.90
9662;DHT22;24982;52.344;12.990;2022-08-21T19:10:30;19.60;99.90
9662;DHT22;24982;52.344;12.990;2022-08-21T19:13:33;19.50;99.90
9662;DHT22;24982;52.344;12.990;2022-08-21T19:16:37;19.40;99.90
9662;DHT22;24982;52.344;12.990;2022-08-21T19:19:40;19.30;99.90
9662;DHT22;24982;52.344;12.990;2022-08-21T19:22:44;19.20;99.90
9662;DHT22;24982;52.344;12.990;2022-08-21T19:25:47;19.20;99.90
9662;DHT22;24982;52.344;12.990;2022-08-21T19:28:52;19.10;99.90
9662;DHT22;24982;52.344;12.990;2022-08-21T19:31:54;19.00;99.90
9662;DHT22;24982;52.344;12.990;2022-08-21T19:34:56;19.00;99.90